Terminal Aerodrome Forecast
Issued by NWS

Current Version | Previous Version | Graphics & Text | Print | Product List | Glossary On
Versions: 1 2 3 4 5 6 7 8 9 10 11 12 13 14 15 16 17
000
FTUS41 KPBZ 291131
TAFMGW
TAF
KMGW 291131Z 2912/3012 VRB03KT P6SM SCT250
     FM291500 23005KT P6SM BKN040
     FM300600 25005KT P6SM VCSH BKN035
     FM301000 29005KT P6SM SCT040=

USA.gov is the U.S. government's official web portal to all federal, state and local government web resources and services.